Thursday, September 20, 2018, 8:40 AM EDT
Back to Local

KRDG, Reading Regional Airport

Location: Reading, PA, United States Lat: 40.367
Local Time: 8:40 AM EDT (12:40 GMT) Lon: -75.967
Time Zone: US/Eastern Elev: 344 ft

Show me the last for .
Show Decoded

2018-09-20 07:54 METAR KRDG 201154Z 34004KT 10SM OVC015 18/17 A3016 RMK AO2 SLP215 T01830172
                 10189 20167 $ =
2018-09-20 06:54 METAR KRDG 201054Z 00000KT 10SM OVC015 18/17 A3014 RMK AO2 SLP209 T01780167 $ =
2018-09-20 05:54 METAR KRDG 200954Z 02003KT 10SM OVC024 18/17 A3011 RMK AO2 SLP198 T01780167 =
2018-09-20 04:54 METAR KRDG 200854Z AUTO 35003KT 10SM OVC020 18/17 A3008 RMK AO2 SLP188 T01780167
                 53002 =
2018-09-20 03:54 METAR KRDG 200754Z AUTO 33003KT 10SM OVC021 18/17 A3008 RMK AO2 SLP187 T01780167
                 =
2018-09-20 03:16 METAR KRDG 200716Z AUTO 00000KT 10SM BKN023 17/17 A3007 RMK AO2 T01720167 =
2018-09-20 02:54 METAR KRDG 200654Z AUTO 31004KT 10SM CLR 17/16 A3007 RMK AO2 SLP186 T01670161 =
2018-09-20 01:54 METAR KRDG 200554Z AUTO 00000KT 10SM CLR 19/17 A3007 RMK AO2 SLP186 T01890167
                 10228 20183 51009 =
2018-09-20 00:54 METAR KRDG 200454Z AUTO 34004KT 10SM CLR 19/17 A3007 RMK AO2 SLP184 T01940167
                 402830172 =
2018-09-19 23:54 METAR KRDG 200354Z AUTO 30003KT 10SM CLR 19/18 A3005 RMK AO2 SLP179 T01940178 =
2018-09-19 22:54 METAR KRDG 200254Z 00000KT 10SM CLR 20/18 A3005 RMK AO2 SLP176 T02000178 51021 =
2018-09-19 21:54 METAR KRDG 200154Z 34007KT 10SM CLR 21/18 A3003 RMK AO2 SLP171 T02060178 =
2018-09-19 20:54 METAR KRDG 200054Z 00000KT 10SM CLR 22/18 A3001 RMK AO2 SLP164 T02220178 =
2018-09-19 19:54 METAR KRDG 192354Z 00000KT 10SM CLR 23/18 A2998 RMK AO2 SLP156 T02280178 10283
                 20228 53016 =
2018-09-19 18:54 METAR KRDG 192254Z 36003KT 10SM CLR 24/18 A2996 RMK AO2 SLP150 T02440178 =
2018-09-19 17:54 METAR KRDG 192154Z 35006KT 10SM CLR 27/18 A2994 RMK AO2 SLP140 T02670178 =
2018-09-19 16:54 METAR KRDG 192054Z 34008KT 10SM CLR 27/18 A2993 RMK AO2 SLP138 T02720183 55001 =
2018-09-19 15:54 METAR KRDG 191954Z 33006KT 10SM FEW043 28/18 A2993 RMK AO2 SLP137 T02780183 =
2018-09-19 14:54 METAR KRDG 191854Z VRB06KT 10SM CLR 28/18 A2993 RMK AO2 SLP137 T02780178 =
2018-09-19 13:54 METAR KRDG 191754Z 35010KT 10SM CLR 28/18 A2994 RMK AO2 SLP140 T02780178 10278
                 20200 58001 =
2018-09-19 12:54 METAR KRDG 191654Z 35011KT 10SM FEW036 27/19 A2994 RMK AO2 SLP142 T02720189 =
2018-09-19 11:54 METAR KRDG 191554Z 35011KT 10SM CLR 26/19 A2994 RMK AO2 SLP140 T02610194 =
2018-09-19 10:54 METAR KRDG 191454Z 34007KT 10SM CLR 24/19 A2994 RMK AO2 SLP140 T02440189 51012 =
2018-09-19 09:54 METAR KRDG 191354Z 35007KT 10SM CLR 24/19 A2994 RMK AO2 SLP139 T02390189 =
2018-09-19 08:54 METAR KRDG 191254Z 00000KT 10SM CLR 22/21 A2992 RMK AO2 SLP134 T02170206 =

Support USWX by starting your Amazon purchase here.